createdAt,value
2022-08-17T00:00:02.393Z,63
2022-08-17T00:20:03.202Z,64
2022-08-17T00:40:02.626Z,65
2022-08-17T01:00:04.061Z,66
2022-08-17T01:20:02.479Z,67
2022-08-17T01:40:03.057Z,67
2022-08-17T02:00:02.555Z,68
2022-08-17T02:20:02.270Z,67
2022-08-17T02:40:02.914Z,68
2022-08-17T03:00:02.429Z,69
2022-08-17T03:20:03.096Z,70
2022-08-17T03:40:02.732Z,70
2022-08-17T04:00:03.178Z,71
2022-08-17T04:20:02.737Z,71
2022-08-17T04:40:04.700Z,70
2022-08-17T05:00:03.254Z,70
2022-08-17T05:20:03.034Z,70
2022-08-17T05:40:02.525Z,69
2022-08-17T06:00:02.867Z,66
2022-08-17T06:20:02.205Z,64
2022-08-17T06:40:02.666Z,64
2022-08-17T07:00:03.816Z,65
2022-08-17T07:20:02.583Z,60
2022-08-17T07:40:17.023Z,54
2022-08-17T08:00:03.331Z,48
2022-08-17T08:20:53.830Z,42
2022-08-17T08:40:02.742Z,37
2022-08-17T09:00:03.115Z,33
2022-08-17T09:20:02.594Z,31
2022-08-17T09:40:03.105Z,28
2022-08-17T10:00:02.552Z,26
2022-08-17T10:20:02.214Z,24
2022-08-17T10:40:02.707Z,24
2022-08-17T11:00:03.147Z,23
2022-08-17T11:20:02.600Z,23
2022-08-17T11:40:04.245Z,22
2022-08-17T12:00:03.895Z,21
2022-08-17T12:20:04.656Z,22
2022-08-17T12:40:03.228Z,23
2022-08-17T13:00:02.786Z,25
2022-08-17T13:20:03.185Z,25
2022-08-17T13:40:02.780Z,26
2022-08-17T14:00:03.273Z,27
2022-08-17T14:20:02.674Z,28
2022-08-17T14:40:03.429Z,28
2022-08-17T15:00:02.788Z,28
2022-08-17T15:40:02.949Z,30
2022-08-17T16:00:02.506Z,30
2022-08-17T16:20:03.018Z,30
2022-08-17T16:40:02.695Z,31
2022-08-17T17:00:02.986Z,30
2022-08-17T17:20:02.789Z,32
2022-08-17T17:40:03.206Z,33
2022-08-17T18:00:03.995Z,34
2022-08-17T18:20:03.923Z,37
2022-08-17T18:40:03.823Z,40
2022-08-17T19:00:03.654Z,43
2022-08-17T19:20:06.387Z,44
2022-08-17T19:40:03.162Z,45
2022-08-17T20:00:02.915Z,47
2022-08-17T20:20:02.402Z,48
2022-08-17T20:40:03.307Z,50
2022-08-17T21:00:02.716Z,50
2022-08-17T21:20:12.637Z,50
2022-08-17T21:40:03.345Z,51
2022-08-17T22:00:02.996Z,51
2022-08-17T22:20:02.664Z,52
2022-08-17T22:40:03.331Z,53
2022-08-17T23:00:02.937Z,54
2022-08-17T23:20:02.915Z,55
2022-08-17T23:40:02.622Z,56
